Terminal Aerodrome Forecast
Issued by NWS

Home | Current Version | Previous Version | Text Only | Print | Product List | Glossary On
Versions: 1 2 3 4 5 6 7 8 9 10 11 12 13 14 15
000
FTUS41 KPBZ 231902 AAA
TAFBVI
TAF AMD
KBVI 231902Z 2319/2418 13010G20KT P6SM -SHRA SCT005 OVC060
      WS020/15040KT
      TEMPO 2319/2322 2SM +SHRA BKN005
     FM232200 14015G25KT 4SM RA OVC030
     FM240600 19010G20KT P6SM OVC015
     FM241200 19008KT P6SM BKN035=

USA.gov is the U.S. government's official web portal to all federal, state and local government web resources and services.